createdAt,value
2023-08-14T00:04:12.263Z,100308.13
2023-08-14T00:09:13.487Z,100296.44
2023-08-14T00:14:14.778Z,100304.81
2023-08-14T00:19:15.962Z,100303.38
2023-08-14T00:24:17.190Z,100299.31
2023-08-14T00:29:18.391Z,100292.56
2023-08-14T00:34:19.581Z,100282.28
2023-08-14T00:39:20.783Z,100293.34
2023-08-14T00:44:22.090Z,100289.13
2023-08-14T00:49:23.398Z,100296.00
2023-08-14T00:54:24.622Z,100288.47
2023-08-14T00:59:25.954Z,100294.56
2023-08-14T01:04:27.134Z,100293.00
2023-08-14T01:09:28.489Z,100287.56
2023-08-14T01:14:29.767Z,100286.25
2023-08-14T01:19:31.007Z,100281.81
2023-08-14T01:24:32.178Z,100279.59
2023-08-14T01:29:33.342Z,100285.09
2023-08-14T01:34:34.531Z,100277.34
2023-08-14T01:39:35.700Z,100253.19
2023-08-14T01:44:36.896Z,100253.75
2023-08-14T01:49:38.173Z,100244.31
2023-08-14T01:54:39.364Z,100235.66
2023-08-14T01:59:40.543Z,100232.78
2023-08-14T02:04:41.725Z,100221.28
2023-08-14T02:09:42.928Z,100222.56
2023-08-14T02:14:44.103Z,100215.59
2023-08-14T02:19:45.303Z,100212.50
2023-08-14T02:24:46.493Z,100213.47
2023-08-14T02:29:47.699Z,100203.19
2023-08-14T02:34:48.924Z,100203.06
2023-08-14T02:39:50.240Z,100198.63
2023-08-14T02:44:51.844Z,100203.34
2023-08-14T02:49:53.168Z,100205.41
2023-08-14T02:54:54.437Z,100206.38
2023-08-14T02:59:55.637Z,100209.88
2023-08-14T03:04:56.892Z,100214.59
2023-08-14T03:09:58.083Z,100206.84
2023-08-14T03:14:59.283Z,100214.97
2023-08-14T03:20:00.518Z,100211.34
2023-08-14T03:25:01.772Z,100197.88
2023-08-14T03:30:02.990Z,100200.50
2023-08-14T03:35:04.190Z,100203.03
2023-08-14T03:40:05.363Z,100211.16
2023-08-14T03:45:06.783Z,100207.13
2023-08-14T03:50:07.997Z,100205.72
2023-08-14T03:55:09.187Z,100211.19
2023-08-14T04:00:10.355Z,100196.88
2023-08-14T04:05:11.582Z,100203.25
2023-08-14T04:10:13.066Z,100207.94
2023-08-14T04:15:14.953Z,100195.50
2023-08-14T04:20:16.522Z,100188.22
2023-08-14T04:25:19.730Z,100189.94
2023-08-14T04:30:20.930Z,100178.00
2023-08-14T04:35:22.174Z,100193.25
2023-08-14T04:40:23.352Z,100194.63
2023-08-14T04:45:24.557Z,100182.97
2023-08-14T04:50:25.726Z,100180.59
2023-08-14T04:55:27.027Z,100174.50
2023-08-14T05:00:28.252Z,100173.97
2023-08-14T05:05:29.892Z,100180.63
2023-08-14T05:10:31.097Z,100190.06
2023-08-14T05:15:32.274Z,100192.19
2023-08-14T05:20:33.457Z,100165.81
2023-08-14T05:25:34.641Z,100166.03
2023-08-14T05:30:35.894Z,100176.09
2023-08-14T05:35:37.059Z,100183.06
2023-08-14T05:40:38.271Z,100177.03
2023-08-14T05:45:39.583Z,100177.88
2023-08-14T05:50:40.913Z,100189.84
2023-08-14T05:55:42.117Z,100190.56
2023-08-14T06:00:43.289Z,100190.97
2023-08-14T06:05:44.509Z,100185.47
2023-08-14T06:10:45.953Z,100192.53
2023-08-14T06:15:47.154Z,100191.94
2023-08-14T06:20:48.334Z,100189.81
2023-08-14T06:25:49.498Z,100184.53
2023-08-14T06:30:50.772Z,100196.53
2023-08-14T06:35:52.033Z,100194.59
2023-08-14T06:40:53.254Z,100189.72
2023-08-14T06:45:54.471Z,100183.00
2023-08-14T06:50:57.578Z,100158.44
2023-08-14T06:55:58.802Z,100174.25
2023-08-14T07:01:00.087Z,100181.53
2023-08-14T07:06:01.288Z,100195.59
2023-08-14T07:11:02.558Z,100187.50
2023-08-14T07:16:03.775Z,100187.16
2023-08-14T07:21:05.062Z,100170.88
2023-08-14T07:26:12.565Z,100180.75
2023-08-14T07:31:13.974Z,100177.22
2023-08-14T07:36:15.226Z,100173.09
2023-08-14T07:41:16.419Z,100176.31
2023-08-14T07:46:19.269Z,100171.38
2023-08-14T07:51:20.893Z,100177.38
2023-08-14T07:56:22.109Z,100155.94
2023-08-14T08:01:23.365Z,100174.03
2023-08-14T08:06:24.682Z,100191.13
2023-08-14T08:11:25.858Z,100183.44
2023-08-14T08:16:27.166Z,100197.19
2023-08-14T08:21:28.386Z,100162.19
2023-08-14T08:26:29.642Z,100182.72
2023-08-14T08:31:30.897Z,100175.16
2023-08-14T08:36:32.126Z,100169.34
2023-08-14T08:41:33.500Z,100168.84
2023-08-14T08:46:34.671Z,100178.28
2023-08-14T08:51:35.914Z,100194.66
2023-08-14T08:56:37.104Z,100190.50
2023-08-14T09:01:39.718Z,100212.34
2023-08-14T09:06:40.947Z,100209.97
2023-08-14T09:11:42.179Z,100203.38
2023-08-14T09:16:43.432Z,100205.09
2023-08-14T09:21:45.830Z,100204.91
2023-08-14T09:26:47.100Z,100184.63
2023-08-14T09:31:48.312Z,100180.78
2023-08-14T09:36:50.538Z,100181.09
2023-08-14T09:41:52.241Z,100190.72
2023-08-14T09:46:55.496Z,100176.13
2023-08-14T09:51:57.179Z,100165.41
2023-08-14T09:57:00.163Z,100157.75
2023-08-14T10:02:01.392Z,100164.63
2023-08-14T10:07:02.641Z,100169.59
2023-08-14T10:12:04.874Z,100156.19
2023-08-14T10:17:06.073Z,100161.94
2023-08-14T10:22:07.517Z,100154.09
2023-08-14T10:27:08.848Z,100149.03
2023-08-14T10:32:10.076Z,100153.25
2023-08-14T10:37:11.250Z,100156.34
2023-08-14T10:42:12.488Z,100156.09
2023-08-14T10:47:13.698Z,100151.47
2023-08-14T10:52:14.906Z,100148.78
2023-08-14T10:57:16.211Z,100150.16
2023-08-14T11:02:17.449Z,100144.66
2023-08-14T11:07:18.835Z,100157.66
2023-08-14T11:12:20.511Z,100156.72
2023-08-14T11:17:21.976Z,100157.13
2023-08-14T11:22:23.553Z,100170.88
2023-08-14T11:27:24.754Z,100179.56
2023-08-14T11:32:26.062Z,100180.41
2023-08-14T11:37:27.690Z,100177.56
2023-08-14T11:42:29.198Z,100172.78
2023-08-14T11:47:30.576Z,100178.31
2023-08-14T11:52:31.841Z,100159.22
2023-08-14T11:57:33.026Z,100159.28
2023-08-14T12:02:34.254Z,100137.59
2023-08-14T12:07:35.505Z,100135.09
2023-08-14T12:12:37.878Z,100112.50
2023-08-14T12:17:40.928Z,100102.25
2023-08-14T12:22:44.609Z,100095.38
2023-08-14T12:27:48.450Z,100093.66
2023-08-14T12:32:49.800Z,100096.97
2023-08-14T12:37:51.032Z,100100.31
2023-08-14T12:42:52.223Z,100078.88
2023-08-14T12:47:53.510Z,100081.78
2023-08-14T12:52:54.743Z,100068.56
2023-08-14T12:57:55.930Z,100056.16
2023-08-14T13:03:01.736Z,100042.53
2023-08-14T13:08:04.023Z,100019.16
2023-08-14T13:13:06.308Z,100013.91
2023-08-14T13:18:07.514Z,99995.25
2023-08-14T13:23:08.752Z,99984.41
2023-08-14T13:28:10.077Z,99958.16
2023-08-14T13:33:11.273Z,99962.53
2023-08-14T13:38:12.456Z,99961.75
2023-08-14T13:43:14.523Z,99954.13
2023-08-14T13:48:15.785Z,99955.31
2023-08-14T13:53:17.053Z,99948.53
2023-08-14T13:58:18.269Z,99958.75
2023-08-14T14:03:19.511Z,99973.34
2023-08-14T14:08:20.719Z,99972.25
2023-08-14T14:13:22.072Z,99983.56
2023-08-14T14:18:23.353Z,99988.06
2023-08-14T14:23:24.626Z,99988.06
2023-08-14T14:28:28.053Z,99995.16
2023-08-14T14:33:31.005Z,100003.34
2023-08-14T14:38:32.200Z,100001.44
2023-08-14T14:43:33.416Z,99995.59
2023-08-14T14:48:34.652Z,99998.50
2023-08-14T14:53:35.999Z,99992.00
2023-08-14T14:58:37.173Z,99990.63
2023-08-14T15:03:38.514Z,99998.44
2023-08-14T15:08:40.177Z,100008.19
2023-08-14T15:13:41.354Z,100009.28
2023-08-14T15:18:42.540Z,100005.94
2023-08-14T15:23:43.775Z,100005.16
2023-08-14T15:28:45.031Z,99992.06
2023-08-14T15:33:46.218Z,99995.63
2023-08-14T15:38:47.410Z,99992.06
2023-08-14T15:43:48.672Z,99987.44
2023-08-14T15:48:50.325Z,99979.00
2023-08-14T15:53:51.610Z,99983.41
2023-08-14T15:58:52.812Z,99975.66
2023-08-14T16:03:54.010Z,99957.94
2023-08-14T16:08:55.186Z,99972.09
2023-08-14T16:13:56.383Z,99966.06
2023-08-14T16:18:57.845Z,99962.44
2023-08-14T16:23:59.010Z,99962.00
2023-08-14T16:29:00.211Z,99970.13
2023-08-14T16:34:01.401Z,99964.91
2023-08-14T16:39:02.981Z,99973.19
2023-08-14T16:44:04.157Z,99969.81
2023-08-14T16:49:05.339Z,99969.81
2023-08-14T16:54:06.574Z,99969.47
2023-08-14T16:59:07.827Z,99965.63
2023-08-14T17:04:09.200Z,99962.56
2023-08-14T17:09:14.218Z,99962.16
2023-08-14T17:14:17.270Z,99968.31
2023-08-14T17:19:19.123Z,99967.59
2023-08-14T17:24:20.372Z,99967.72
2023-08-14T17:29:21.791Z,99983.19
2023-08-14T17:34:23.064Z,99978.22
2023-08-14T17:39:24.308Z,99975.63
2023-08-14T17:44:25.567Z,99975.66
2023-08-14T17:49:26.992Z,99973.00
2023-08-14T17:54:28.195Z,99975.69
2023-08-14T17:59:29.421Z,99976.91
2023-08-14T18:04:30.663Z,99969.31
2023-08-14T18:09:31.914Z,99977.03
2023-08-14T18:14:33.162Z,99971.31
2023-08-14T18:19:34.386Z,99979.03
2023-08-14T18:24:35.659Z,99984.03
2023-08-14T18:29:36.850Z,99983.66
2023-08-14T18:34:40.264Z,99977.13
2023-08-14T18:39:41.465Z,99972.91
2023-08-14T18:44:42.670Z,99982.06
2023-08-14T18:49:46.962Z,99977.84
2023-08-14T18:54:48.180Z,99975.94
2023-08-14T18:59:49.429Z,99981.28
2023-08-14T19:04:50.691Z,99982.78
2023-08-14T19:09:51.896Z,99987.75
2023-08-14T19:14:53.313Z,100006.06
2023-08-14T19:19:55.321Z,100010.63
2023-08-14T19:24:56.534Z,100013.25
2023-08-14T19:29:57.867Z,100008.59
2023-08-14T19:35:00.102Z,100015.84
2023-08-14T19:40:01.373Z,100019.25
2023-08-14T19:45:02.554Z,100013.06
2023-08-14T19:50:03.770Z,100027.91
2023-08-14T19:55:05.002Z,100041.25
2023-08-14T20:00:06.285Z,100037.34
2023-08-14T20:05:07.750Z,100029.69
2023-08-14T20:10:08.933Z,100031.94
2023-08-14T20:15:10.123Z,100029.63
2023-08-14T20:20:11.355Z,100021.94
2023-08-14T20:25:12.881Z,100027.72
2023-08-14T20:30:14.071Z,100016.72
2023-08-14T20:35:15.252Z,100030.53
2023-08-14T20:40:16.449Z,100026.66
2023-08-14T20:45:19.985Z,100019.66
2023-08-14T20:50:21.210Z,100026.88
2023-08-14T20:55:22.408Z,100034.88
2023-08-14T21:00:23.705Z,100023.34
2023-08-14T21:05:25.191Z,100029.34
2023-08-14T21:10:26.384Z,100033.84
2023-08-14T21:15:28.621Z,100035.78
2023-08-14T21:20:29.802Z,100028.47
2023-08-14T21:25:44.122Z,100042.59
2023-08-14T21:30:47.574Z,100041.41
2023-08-14T21:35:48.745Z,100040.63
2023-08-14T21:40:49.941Z,100043.78
2023-08-14T21:45:51.211Z,100049.19
2023-08-14T21:50:52.410Z,100046.91
2023-08-14T21:55:53.602Z,100048.09
2023-08-14T22:00:54.802Z,100046.16
2023-08-14T22:05:56.120Z,100046.47
2023-08-14T22:10:57.283Z,100041.47
2023-08-14T22:15:58.486Z,100037.94
2023-08-14T22:20:59.701Z,100029.06
2023-08-14T22:26:00.890Z,100038.91
2023-08-14T22:31:02.130Z,100050.28
2023-08-14T22:36:03.335Z,100037.97
2023-08-14T22:41:04.567Z,100039.84
2023-08-14T22:46:05.772Z,100044.00
2023-08-14T22:51:07.022Z,100045.53
2023-08-14T22:56:08.218Z,100042.44
2023-08-14T23:01:09.459Z,100054.66
2023-08-14T23:06:10.666Z,100061.56
2023-08-14T23:11:11.843Z,100063.09
2023-08-14T23:16:13.103Z,100058.53
2023-08-14T23:21:14.368Z,100062.28
2023-08-14T23:26:15.587Z,100065.25
2023-08-14T23:31:16.794Z,100058.38
2023-08-14T23:36:18.028Z,100049.91
2023-08-14T23:41:19.251Z,100039.63
2023-08-14T23:46:20.474Z,100039.69
2023-08-14T23:51:23.714Z,100038.56
2023-08-14T23:56:24.889Z,100026.72
